sensor_id;sensor_type;location;lat;lon;timestamp;temperature;humidity
24560;DHT22;12727;49.934;8.656;2022-12-18T00:01:38;-8.60;99.90
24560;DHT22;12727;49.934;8.656;2022-12-18T00:04:05;-8.40;99.90
24560;DHT22;12727;49.934;8.656;2022-12-18T00:06:32;-8.00;99.90
24560;DHT22;12727;49.934;8.656;2022-12-18T00:08:59;-7.40;99.90
24560;DHT22;12727;49.934;8.656;2022-12-18T00:11:29;-6.80;99.90
24560;DHT22;12727;49.934;8.656;2022-12-18T00:13:57;-6.40;99.90
24560;DHT22;12727;49.934;8.656;2022-12-18T00:16:24;-7.00;99.90
24560;DHT22;12727;49.934;8.656;2022-12-18T00:18:52;-7.80;99.90
24560;DHT22;12727;49.934;8.656;2022-12-18T00:21:19;-8.30;99.90
24560;DHT22;12727;49.934;8.656;2022-12-18T00:23:46;-8.40;99.90
24560;DHT22;12727;49.934;8.656;2022-12-18T00:26:15;-8.50;99.90
24560;DHT22;12727;49.934;8.656;2022-12-18T00:28:41;-8.70;99.90
24560;DHT22;12727;49.934;8.656;2022-12-18T00:31:09;-8.80;99.90
24560;DHT22;12727;49.934;8.656;2022-12-18T00:33:35;-8.90;99.90
24560;DHT22;12727;49.934;8.656;2022-12-18T00:36:02;-9.00;99.90
24560;DHT22;12727;49.934;8.656;2022-12-18T00:38:28;-9.00;99.90
24560;DHT22;12727;49.934;8.656;2022-12-18T00:40:53;-9.00;99.90
24560;DHT22;12727;49.934;8.656;2022-12-18T00:43:19;-9.00;99.90
24560;DHT22;12727;49.934;8.656;2022-12-18T00:45:45;-9.00;99.90
24560;DHT22;12727;49.934;8.656;2022-12-18T00:48:10;-8.90;99.90
24560;DHT22;12727;49.934;8.656;2022-12-18T00:50:36;-8.20;99.90
24560;DHT22;12727;49.934;8.656;2022-12-18T00:53:02;-8.00;99.90
24560;DHT22;12727;49.934;8.656;2022-12-18T00:55:27;-7.90;99.90
24560;DHT22;12727;49.934;8.656;2022-12-18T00:57:53;-8.20;99.90
24560;DHT22;12727;49.934;8.656;2022-12-18T01:00:18;-8.50;99.90
24560;DHT22;12727;49.934;8.656;2022-12-18T01:02:44;-8.70;99.90
24560;DHT22;12727;49.934;8.656;2022-12-18T01:05:11;-8.80;99.90
24560;DHT22;12727;49.934;8.656;2022-12-18T01:07:37;-8.90;99.90
24560;DHT22;12727;49.934;8.656;2022-12-18T01:10:04;-9.10;99.90
24560;DHT22;12727;49.934;8.656;2022-12-18T01:12:30;-9.20;99.90
24560;DHT22;12727;49.934;8.656;2022-12-18T01:14:56;-9.30;99.90
24560;DHT22;12727;49.934;8.656;2022-12-18T01:17:22;-9.30;99.90
24560;DHT22;12727;49.934;8.656;2022-12-18T01:19:47;-9.30;99.90
24560;DHT22;12727;49.934;8.656;2022-12-18T01:22:13;-9.10;99.90
24560;DHT22;12727;49.934;8.656;2022-12-18T01:24:38;-8.90;99.90
24560;DHT22;12727;49.934;8.656;2022-12-18T01:27:04;-8.70;99.90
24560;DHT22;12727;49.934;8.656;2022-12-18T01:29:30;-8.50;99.90
24560;DHT22;12727;49.934;8.656;2022-12-18T01:31:56;-8.30;99.90
24560;DHT22;12727;49.934;8.656;2022-12-18T01:34:22;-8.30;99.90
24560;DHT22;12727;49.934;8.656;2022-12-18T01:36:47;-8.50;99.90
24560;DHT22;12727;49.934;8.656;2022-12-18T01:39:14;-8.80;99.90
24560;DHT22;12727;49.934;8.656;2022-12-18T01:41:40;-9.00;99.90
24560;DHT22;12727;49.934;8.656;2022-12-18T01:44:51;-9.10;99.90
24560;DHT22;12727;49.934;8.656;2022-12-18T01:49:45;-9.20;99.90
24560;DHT22;12727;49.934;8.656;2022-12-18T01:52:11;-9.10;99.90
24560;DHT22;12727;49.934;8.656;2022-12-18T01:54:37;-9.10;99.90
24560;DHT22;12727;49.934;8.656;2022-12-18T01:57:02;-9.10;99.90
24560;DHT22;12727;49.934;8.656;2022-12-18T01:59:31;-9.00;99.90
24560;DHT22;12727;49.934;8.656;2022-12-18T02:01:57;-9.00;99.90
24560;DHT22;12727;49.934;8.656;2022-12-18T02:04:27;-9.00;99.90
24560;DHT22;12727;49.934;8.656;2022-12-18T02:09:53;-8.90;99.90
24560;DHT22;12727;49.934;8.656;2022-12-18T02:12:23;-9.00;99.90
24560;DHT22;12727;49.934;8.656;2022-12-18T02:15:13;-9.00;99.90
24560;DHT22;12727;49.934;8.656;2022-12-18T02:17:54;-9.00;99.90
24560;DHT22;12727;49.934;8.656;2022-12-18T02:20:36;-9.00;99.90
24560;DHT22;12727;49.934;8.656;2022-12-18T02:23:38;-9.00;99.90
24560;DHT22;12727;49.934;8.656;2022-12-18T02:29:05;-9.00;99.90
24560;DHT22;12727;49.934;8.656;2022-12-18T02:31:38;-9.10;99.90
24560;DHT22;12727;49.934;8.656;2022-12-18T02:34:07;-9.10;99.90
24560;DHT22;12727;49.934;8.656;2022-12-18T02:36:36;-9.20;99.90
24560;DHT22;12727;49.934;8.656;2022-12-18T02:39:04;-9.20;99.90
24560;DHT22;12727;49.934;8.656;2022-12-18T02:41:31;-9.20;99.90
24560;DHT22;12727;49.934;8.656;2022-12-18T02:43:59;-9.20;99.90
24560;DHT22;12727;49.934;8.656;2022-12-18T02:49:17;-9.20;99.90
24560;DHT22;12727;49.934;8.656;2022-12-18T02:51:52;-9.20;99.90
24560;DHT22;12727;49.934;8.656;2022-12-18T02:56:57;-9.20;99.90
24560;DHT22;12727;49.934;8.656;2022-12-18T02:59:39;-9.30;99.90
24560;DHT22;12727;49.934;8.656;2022-12-18T03:02:25;-9.30;99.90
24560;DHT22;12727;49.934;8.656;2022-12-18T03:05:09;-9.20;99.90
24560;DHT22;12727;49.934;8.656;2022-12-18T03:07:58;-9.20;99.90
24560;DHT22;12727;49.934;8.656;2022-12-18T03:10:31;-9.30;99.90
24560;DHT22;12727;49.934;8.656;2022-12-18T03:13:04;-9.20;99.90
24560;DHT22;12727;49.934;8.656;2022-12-18T03:15:44;-9.30;99.90
24560;DHT22;12727;49.934;8.656;2022-12-18T03:18:17;-9.40;99.90
24560;DHT22;12727;49.934;8.656;2022-12-18T03:20:44;-9.40;99.90
24560;DHT22;12727;49.934;8.656;2022-12-18T03:23:16;-9.40;99.90
24560;DHT22;12727;49.934;8.656;2022-12-18T03:25:44;-9.40;99.90
24560;DHT22;12727;49.934;8.656;2022-12-18T03:28:14;-9.40;99.90
24560;DHT22;12727;49.934;8.656;2022-12-18T03:30:43;-9.40;99.90
24560;DHT22;12727;49.934;8.656;2022-12-18T03:33:13;-9.30;99.90
24560;DHT22;12727;49.934;8.656;2022-12-18T03:35:43;-9.20;99.90
24560;DHT22;12727;49.934;8.656;2022-12-18T03:38:10;-9.20;99.90
24560;DHT22;12727;49.934;8.656;2022-12-18T03:40:59;-9.20;99.90
24560;DHT22;12727;49.934;8.656;2022-12-18T03:43:37;-9.20;99.90
24560;DHT22;12727;49.934;8.656;2022-12-18T03:46:15;-9.20;99.90
24560;DHT22;12727;49.934;8.656;2022-12-18T03:48:46;-9.20;99.90
24560;DHT22;12727;49.934;8.656;2022-12-18T03:51:39;-9.10;99.90
24560;DHT22;12727;49.934;8.656;2022-12-18T03:54:08;-9.10;99.90
24560;DHT22;12727;49.934;8.656;2022-12-18T03:56:39;-9.10;99.90
24560;DHT22;12727;49.934;8.656;2022-12-18T03:59:06;-9.10;99.90
24560;DHT22;12727;49.934;8.656;2022-12-18T04:01:36;-9.10;99.90
24560;DHT22;12727;49.934;8.656;2022-12-18T04:04:03;-9.20;99.90
24560;DHT22;12727;49.934;8.656;2022-12-18T04:06:30;-9.20;99.90
24560;DHT22;12727;49.934;8.656;2022-12-18T04:08:57;-9.10;99.90
24560;DHT22;12727;49.934;8.656;2022-12-18T04:11:24;-9.00;99.90
24560;DHT22;12727;49.934;8.656;2022-12-18T04:13:49;-8.90;99.90
24560;DHT22;12727;49.934;8.656;2022-12-18T04:16:15;-8.90;99.90
24560;DHT22;12727;49.934;8.656;2022-12-18T04:18:40;-8.80;99.90
24560;DHT22;12727;49.934;8.656;2022-12-18T04:21:06;-9.10;99.90
24560;DHT22;12727;49.934;8.656;2022-12-18T04:23:32;-9.30;99.90
24560;DHT22;12727;49.934;8.656;2022-12-18T04:25:57;-9.20;99.90
24560;DHT22;12727;49.934;8.656;2022-12-18T04:28:23;-9.20;99.90
24560;DHT22;12727;49.934;8.656;2022-12-18T04:30:49;-9.20;99.90
24560;DHT22;12727;49.934;8.656;2022-12-18T04:33:14;-9.20;99.90
24560;DHT22;12727;49.934;8.656;2022-12-18T04:35:40;-9.20;99.90
24560;DHT22;12727;49.934;8.656;2022-12-18T04:38:07;-9.10;99.90
24560;DHT22;12727;49.934;8.656;2022-12-18T04:40:33;-9.10;99.90
24560;DHT22;12727;49.934;8.656;2022-12-18T04:42:59;-9.00;99.90
24560;DHT22;12727;49.934;8.656;2022-12-18T04:45:25;-9.00;99.90
24560;DHT22;12727;49.934;8.656;2022-12-18T04:47:50;-9.10;99.90
24560;DHT22;12727;49.934;8.656;2022-12-18T04:50:16;-9.10;99.90
24560;DHT22;12727;49.934;8.656;2022-12-18T04:52:41;-9.10;99.90
24560;DHT22;12727;49.934;8.656;2022-12-18T04:55:07;-9.10;99.90
24560;DHT22;12727;49.934;8.656;2022-12-18T04:57:33;-8.90;99.90
24560;DHT22;12727;49.934;8.656;2022-12-18T04:59:58;-8.90;99.90
24560;DHT22;12727;49.934;8.656;2022-12-18T05:02:24;-8.80;99.90
24560;DHT22;12727;49.934;8.656;2022-12-18T05:04:50;-8.80;99.90
24560;DHT22;12727;49.934;8.656;2022-12-18T05:07:15;-8.80;99.90
24560;DHT22;12727;49.934;8.656;2022-12-18T05:09:41;-8.60;99.90
24560;DHT22;12727;49.934;8.656;2022-12-18T05:12:06;-8.60;99.90
24560;DHT22;12727;49.934;8.656;2022-12-18T05:14:32;-8.60;99.90
24560;DHT22;12727;49.934;8.656;2022-12-18T05:16:57;-8.70;99.90
24560;DHT22;12727;49.934;8.656;2022-12-18T05:19:23;-8.70;99.90
24560;DHT22;12727;49.934;8.656;2022-12-18T05:21:48;-8.80;99.90
24560;DHT22;12727;49.934;8.656;2022-12-18T05:24:14;-8.80;99.90
24560;DHT22;12727;49.934;8.656;2022-12-18T05:26:39;-8.80;99.90
24560;DHT22;12727;49.934;8.656;2022-12-18T05:29:05;-8.80;99.90
24560;DHT22;12727;49.934;8.656;2022-12-18T05:31:30;-8.90;99.90
24560;DHT22;12727;49.934;8.656;2022-12-18T05:33:57;-9.00;99.90
24560;DHT22;12727;49.934;8.656;2022-12-18T05:36:23;-9.10;99.90
24560;DHT22;12727;49.934;8.656;2022-12-18T05:38:49;-9.10;99.90
24560;DHT22;12727;49.934;8.656;2022-12-18T05:41:14;-9.10;99.90
24560;DHT22;12727;49.934;8.656;2022-12-18T05:43:40;-9.10;99.90
24560;DHT22;12727;49.934;8.656;2022-12-18T05:46:12;-9.10;99.90
24560;DHT22;12727;49.934;8.656;2022-12-18T05:48:38;-9.00;99.90
24560;DHT22;12727;49.934;8.656;2022-12-18T05:51:12;-8.90;99.90
24560;DHT22;12727;49.934;8.656;2022-12-18T05:53:40;-8.90;99.90
24560;DHT22;12727;49.934;8.656;2022-12-18T05:56:09;-8.90;99.90
24560;DHT22;12727;49.934;8.656;2022-12-18T05:58:36;-8.90;99.90
24560;DHT22;12727;49.934;8.656;2022-12-18T06:01:11;-8.90;99.90
24560;DHT22;12727;49.934;8.656;2022-12-18T06:03:37;-8.90;99.90
24560;DHT22;12727;49.934;8.656;2022-12-18T06:06:03;-9.00;99.90
24560;DHT22;12727;49.934;8.656;2022-12-18T06:08:28;-9.00;99.90
24560;DHT22;12727;49.934;8.656;2022-12-18T06:10:54;-9.00;99.90
24560;DHT22;12727;49.934;8.656;2022-12-18T06:13:20;-9.00;99.90
24560;DHT22;12727;49.934;8.656;2022-12-18T06:15:46;-9.00;99.90
24560;DHT22;12727;49.934;8.656;2022-12-18T06:18:11;-8.90;99.90
24560;DHT22;12727;49.934;8.656;2022-12-18T06:20:37;-8.90;99.90
24560;DHT22;12727;49.934;8.656;2022-12-18T06:23:05;-8.90;99.90
24560;DHT22;12727;49.934;8.656;2022-12-18T06:25:31;-8.80;99.90
24560;DHT22;12727;49.934;8.656;2022-12-18T06:27:57;-8.70;99.90
24560;DHT22;12727;49.934;8.656;2022-12-18T06:30:23;-8.60;99.90
24560;DHT22;12727;49.934;8.656;2022-12-18T06:32:49;-8.50;99.90
24560;DHT22;12727;49.934;8.656;2022-12-18T06:35:15;-8.50;99.90
24560;DHT22;12727;49.934;8.656;2022-12-18T06:37:40;-8.50;99.90
24560;DHT22;12727;49.934;8.656;2022-12-18T06:40:07;-8.40;99.90
24560;DHT22;12727;49.934;8.656;2022-12-18T06:42:32;-8.50;99.90
24560;DHT22;12727;49.934;8.656;2022-12-18T06:44:58;-8.50;99.90
24560;DHT22;12727;49.934;8.656;2022-12-18T06:47:24;-8.50;99.90
24560;DHT22;12727;49.934;8.656;2022-12-18T06:49:49;-8.50;99.90
24560;DHT22;12727;49.934;8.656;2022-12-18T06:52:15;-8.40;99.90
24560;DHT22;12727;49.934;8.656;2022-12-18T06:54:40;-8.30;99.90
24560;DHT22;12727;49.934;8.656;2022-12-18T06:57:06;-8.30;99.90
24560;DHT22;12727;49.934;8.656;2022-12-18T06:59:31;-8.30;99.90
24560;DHT22;12727;49.934;8.656;2022-12-18T07:01:57;-8.30;99.90
24560;DHT22;12727;49.934;8.656;2022-12-18T07:04:27;-8.30;99.90
24560;DHT22;12727;49.934;8.656;2022-12-18T07:06:53;-8.30;99.90
24560;DHT22;12727;49.934;8.656;2022-12-18T07:09:19;-8.30;99.90
24560;DHT22;12727;49.934;8.656;2022-12-18T07:11:44;-8.20;99.90
24560;DHT22;12727;49.934;8.656;2022-12-18T07:14:10;-8.10;99.90
24560;DHT22;12727;49.934;8.656;2022-12-18T07:16:35;-8.10;99.90
24560;DHT22;12727;49.934;8.656;2022-12-18T07:19:01;-8.00;99.90
24560;DHT22;12727;49.934;8.656;2022-12-18T07:21:26;-7.90;99.90
24560;DHT22;12727;49.934;8.656;2022-12-18T07:23:52;-7.80;99.90
24560;DHT22;12727;49.934;8.656;2022-12-18T07:26:19;-7.80;99.90
24560;DHT22;12727;49.934;8.656;2022-12-18T07:28:46;-7.70;99.90
24560;DHT22;12727;49.934;8.656;2022-12-18T07:31:20;-7.70;99.90
24560;DHT22;12727;49.934;8.656;2022-12-18T07:33:46;-7.70;99.90
24560;DHT22;12727;49.934;8.656;2022-12-18T07:36:12;-7.70;99.90
24560;DHT22;12727;49.934;8.656;2022-12-18T07:38:38;-7.80;99.90
24560;DHT22;12727;49.934;8.656;2022-12-18T07:41:06;-7.80;99.90
24560;DHT22;12727;49.934;8.656;2022-12-18T07:43:33;-7.90;99.90
24560;DHT22;12727;49.934;8.656;2022-12-18T07:45:59;-7.90;99.90
24560;DHT22;12727;49.934;8.656;2022-12-18T07:48:25;-7.90;99.90
24560;DHT22;12727;49.934;8.656;2022-12-18T07:50:50;-7.90;99.90
24560;DHT22;12727;49.934;8.656;2022-12-18T07:53:16;-8.00;99.90
24560;DHT22;12727;49.934;8.656;2022-12-18T07:55:42;-7.90;99.90
24560;DHT22;12727;49.934;8.656;2022-12-18T07:58:08;-7.90;99.90
24560;DHT22;12727;49.934;8.656;2022-12-18T08:00:34;-8.10;99.90
24560;DHT22;12727;49.934;8.656;2022-12-18T08:03:00;-8.10;99.90
24560;DHT22;12727;49.934;8.656;2022-12-18T08:05:26;-8.10;99.90
24560;DHT22;12727;49.934;8.656;2022-12-18T08:07:52;-8.00;99.90
24560;DHT22;12727;49.934;8.656;2022-12-18T08:10:18;-8.10;99.90
24560;DHT22;12727;49.934;8.656;2022-12-18T08:12:44;-8.00;99.90
24560;DHT22;12727;49.934;8.656;2022-12-18T08:15:09;-8.10;99.90
24560;DHT22;12727;49.934;8.656;2022-12-18T08:17:35;-8.00;99.90
24560;DHT22;12727;49.934;8.656;2022-12-18T08:20:01;-8.00;99.90
24560;DHT22;12727;49.934;8.656;2022-12-18T08:22:26;-7.90;99.90
24560;DHT22;12727;49.934;8.656;2022-12-18T08:24:52;-7.90;99.90
24560;DHT22;12727;49.934;8.656;2022-12-18T08:27:17;-7.90;99.90
24560;DHT22;12727;49.934;8.656;2022-12-18T08:29:43;-7.50;99.90
24560;DHT22;12727;49.934;8.656;2022-12-18T08:32:10;-6.80;99.90
24560;DHT22;12727;49.934;8.656;2022-12-18T08:34:35;-6.00;99.90
24560;DHT22;12727;49.934;8.656;2022-12-18T08:37:01;-5.40;99.90
24560;DHT22;12727;49.934;8.656;2022-12-18T08:39:26;-5.10;99.90
24560;DHT22;12727;49.934;8.656;2022-12-18T08:41:52;-4.60;99.90
24560;DHT22;12727;49.934;8.656;2022-12-18T08:44:36;-4.30;99.90
24560;DHT22;12727;49.934;8.656;2022-12-18T08:47:06;-4.20;99.90
24560;DHT22;12727;49.934;8.656;2022-12-18T08:49:32;-3.90;99.90
24560;DHT22;12727;49.934;8.656;2022-12-18T08:51:58;-3.70;99.90
24560;DHT22;12727;49.934;8.656;2022-12-18T08:54:24;-3.10;99.90
24560;DHT22;12727;49.934;8.656;2022-12-18T08:56:50;-2.50;99.90
24560;DHT22;12727;49.934;8.656;2022-12-18T08:59:17;-1.60;99.90
24560;DHT22;12727;49.934;8.656;2022-12-18T09:01:43;-1.50;99.90
24560;DHT22;12727;49.934;8.656;2022-12-18T09:04:12;-1.20;99.90
24560;DHT22;12727;49.934;8.656;2022-12-18T09:06:39;-1.20;99.90
24560;DHT22;12727;49.934;8.656;2022-12-18T09:09:05;-0.90;99.90
24560;DHT22;12727;49.934;8.656;2022-12-18T09:11:37;-1.30;99.90
24560;DHT22;12727;49.934;8.656;2022-12-18T09:14:03;-1.40;99.90
24560;DHT22;12727;49.934;8.656;2022-12-18T09:16:29;-1.10;99.90
24560;DHT22;12727;49.934;8.656;2022-12-18T09:18:56;-0.60;99.90
24560;DHT22;12727;49.934;8.656;2022-12-18T09:21:34;-0.80;99.90
24560;DHT22;12727;49.934;8.656;2022-12-18T09:24:11;-0.70;99.90
24560;DHT22;12727;49.934;8.656;2022-12-18T09:26:38;-0.70;99.90
24560;DHT22;12727;49.934;8.656;2022-12-18T09:29:04;-0.70;99.90
24560;DHT22;12727;49.934;8.656;2022-12-18T09:31:32;-0.90;99.90
24560;DHT22;12727;49.934;8.656;2022-12-18T09:33:58;-0.90;99.90
24560;DHT22;12727;49.934;8.656;2022-12-18T09:36:24;-0.50;99.90
24560;DHT22;12727;49.934;8.656;2022-12-18T09:38:50;-0.40;99.90
24560;DHT22;12727;49.934;8.656;2022-12-18T09:41:45;-0.10;99.90
24560;DHT22;12727;49.934;8.656;2022-12-18T09:47:33;0.50;99.90
24560;DHT22;12727;49.934;8.656;2022-12-18T09:49:35;0.60;99.90
24560;DHT22;12727;49.934;8.656;2022-12-18T09:52:13;0.90;99.90
24560;DHT22;12727;49.934;8.656;2022-12-18T09:54:47;0.80;99.90
24560;DHT22;12727;49.934;8.656;2022-12-18T09:57:17;0.70;99.90
24560;DHT22;12727;49.934;8.656;2022-12-18T09:59:47;0.20;99.90
24560;DHT22;12727;49.934;8.656;2022-12-18T10:02:20;-0.20;99.90
24560;DHT22;12727;49.934;8.656;2022-12-18T10:05:03;-0.60;99.90
24560;DHT22;12727;49.934;8.656;2022-12-18T10:10:40;-1.40;99.90
24560;DHT22;12727;49.934;8.656;2022-12-18T10:15:53;-0.80;99.90
24560;DHT22;12727;49.934;8.656;2022-12-18T10:21:17;-0.70;99.80
24560;DHT22;12727;49.934;8.656;2022-12-18T10:24:08;-0.40;99.80
24560;DHT22;12727;49.934;8.656;2022-12-18T10:26:39;-0.80;96.50
24560;DHT22;12727;49.934;8.656;2022-12-18T10:29:14;-1.00;98.50
24560;DHT22;12727;49.934;8.656;2022-12-18T10:31:40;-1.30;98.40
24560;DHT22;12727;49.934;8.656;2022-12-18T10:34:12;-1.60;98.30
24560;DHT22;12727;49.934;8.656;2022-12-18T10:36:40;-2.30;99.50
24560;DHT22;12727;49.934;8.656;2022-12-18T10:39:21;-2.40;99.90
24560;DHT22;12727;49.934;8.656;2022-12-18T10:42:10;-2.60;99.90
24560;DHT22;12727;49.934;8.656;2022-12-18T10:44:36;-3.00;99.90
24560;DHT22;12727;49.934;8.656;2022-12-18T10:47:10;-3.40;99.90
24560;DHT22;12727;49.934;8.656;2022-12-18T10:49:37;-3.60;99.90
24560;DHT22;12727;49.934;8.656;2022-12-18T10:52:15;-3.80;99.90
24560;DHT22;12727;49.934;8.656;2022-12-18T10:55:13;-3.80;99.90
24560;DHT22;12727;49.934;8.656;2022-12-18T10:57:36;-4.00;99.90
24560;DHT22;12727;49.934;8.656;2022-12-18T11:00:28;-4.10;99.90
24560;DHT22;12727;49.934;8.656;2022-12-18T11:02:54;-4.10;99.90
24560;DHT22;12727;49.934;8.656;2022-12-18T11:05:33;-4.10;99.90
24560;DHT22;12727;49.934;8.656;2022-12-18T11:08:00;-4.20;99.90
24560;DHT22;12727;49.934;8.656;2022-12-18T11:10:36;-4.10;99.90
24560;DHT22;12727;49.934;8.656;2022-12-18T11:13:18;-4.00;99.90
24560;DHT22;12727;49.934;8.656;2022-12-18T11:15:44;-4.00;99.90
24560;DHT22;12727;49.934;8.656;2022-12-18T11:20:54;-3.80;99.90
24560;DHT22;12727;49.934;8.656;2022-12-18T11:23:21;-3.80;99.90
24560;DHT22;12727;49.934;8.656;2022-12-18T11:25:57;-3.80;99.90
24560;DHT22;12727;49.934;8.656;2022-12-18T11:29:08;-3.80;99.90
24560;DHT22;12727;49.934;8.656;2022-12-18T11:31:34;-3.70;99.90
24560;DHT22;12727;49.934;8.656;2022-12-18T11:34:27;-3.80;99.90
24560;DHT22;12727;49.934;8.656;2022-12-18T11:36:55;-3.80;99.90
24560;DHT22;12727;49.934;8.656;2022-12-18T11:39:46;-3.80;99.90
24560;DHT22;12727;49.934;8.656;2022-12-18T11:42:12;-3.80;99.90
24560;DHT22;12727;49.934;8.656;2022-12-18T11:47:38;-3.80;99.90
24560;DHT22;12727;49.934;8.656;2022-12-18T11:50:14;-3.80;99.90
24560;DHT22;12727;49.934;8.656;2022-12-18T11:52:41;-3.70;99.90
24560;DHT22;12727;49.934;8.656;2022-12-18T12:00:29;-3.60;99.90
24560;DHT22;12727;49.934;8.656;2022-12-18T12:03:16;-3.60;99.90
24560;DHT22;12727;49.934;8.656;2022-12-18T12:05:54;-3.60;99.90
24560;DHT22;12727;49.934;8.656;2022-12-18T12:08:52;-3.60;99.90
24560;DHT22;12727;49.934;8.656;2022-12-18T12:11:43;-3.60;99.90
24560;DHT22;12727;49.934;8.656;2022-12-18T12:17:04;-3.60;99.90
24560;DHT22;12727;49.934;8.656;2022-12-18T12:31:01;-3.50;99.90
24560;DHT22;12727;49.934;8.656;2022-12-18T12:33:51;-3.50;99.90
24560;DHT22;12727;49.934;8.656;2022-12-18T12:39:20;-3.40;99.90
24560;DHT22;12727;49.934;8.656;2022-12-18T12:41:46;-3.50;99.90
24560;DHT22;12727;49.934;8.656;2022-12-18T12:44:38;-3.40;99.90
24560;DHT22;12727;49.934;8.656;2022-12-18T12:47:21;-3.40;99.90
24560;DHT22;12727;49.934;8.656;2022-12-18T12:49:49;-3.50;99.90
24560;DHT22;12727;49.934;8.656;2022-12-18T12:54:52;-3.40;99.90
24560;DHT22;12727;49.934;8.656;2022-12-18T12:57:20;-3.40;99.90
24560;DHT22;12727;49.934;8.656;2022-12-18T12:59:50;-3.40;99.90
24560;DHT22;12727;49.934;8.656;2022-12-18T13:02:22;-3.40;99.90
24560;DHT22;12727;49.934;8.656;2022-12-18T13:05:03;-3.30;99.90
24560;DHT22;12727;49.934;8.656;2022-12-18T13:08:09;-3.30;99.90
24560;DHT22;12727;49.934;8.656;2022-12-18T13:10:40;-3.30;99.90
24560;DHT22;12727;49.934;8.656;2022-12-18T13:13:14;-3.30;99.90
24560;DHT22;12727;49.934;8.656;2022-12-18T13:15:50;-3.30;99.90
24560;DHT22;12727;49.934;8.656;2022-12-18T13:18:28;-3.30;99.90
24560;DHT22;12727;49.934;8.656;2022-12-18T13:25:45;-3.30;99.90
24560;DHT22;12727;49.934;8.656;2022-12-18T13:30:49;-3.20;99.90
24560;DHT22;12727;49.934;8.656;2022-12-18T13:38:23;-3.20;99.90
24560;DHT22;12727;49.934;8.656;2022-12-18T13:46:17;-3.20;99.90
24560;DHT22;12727;49.934;8.656;2022-12-18T13:48:53;-3.10;99.90
24560;DHT22;12727;49.934;8.656;2022-12-18T13:51:20;-3.10;99.90
24560;DHT22;12727;49.934;8.656;2022-12-18T13:54:06;-3.10;99.90
24560;DHT22;12727;49.934;8.656;2022-12-18T13:56:44;-3.20;99.90
24560;DHT22;12727;49.934;8.656;2022-12-18T14:01:47;-3.10;99.90
24560;DHT22;12727;49.934;8.656;2022-12-18T14:06:50;-3.10;99.90
24560;DHT22;12727;49.934;8.656;2022-12-18T14:09:21;-3.20;99.90
24560;DHT22;12727;49.934;8.656;2022-12-18T14:11:49;-3.10;99.90
24560;DHT22;12727;49.934;8.656;2022-12-18T14:14:17;-3.20;99.90
24560;DHT22;12727;49.934;8.656;2022-12-18T14:16:44;-3.20;99.90
24560;DHT22;12727;49.934;8.656;2022-12-18T14:19:16;-3.20;99.90
24560;DHT22;12727;49.934;8.656;2022-12-18T14:21:47;-3.20;99.90
24560;DHT22;12727;49.934;8.656;2022-12-18T14:26:39;-3.20;99.90
24560;DHT22;12727;49.934;8.656;2022-12-18T14:29:23;-3.10;99.90
24560;DHT22;12727;49.934;8.656;2022-12-18T14:34:33;-3.20;99.90
24560;DHT22;12727;49.934;8.656;2022-12-18T14:36:59;-3.20;99.90
24560;DHT22;12727;49.934;8.656;2022-12-18T14:39:24;-3.20;99.90
24560;DHT22;12727;49.934;8.656;2022-12-18T14:41:51;-3.20;99.90
24560;DHT22;12727;49.934;8.656;2022-12-18T14:44:17;-3.20;99.90
24560;DHT22;12727;49.934;8.656;2022-12-18T14:46:44;-3.20;99.90
24560;DHT22;12727;49.934;8.656;2022-12-18T14:49:29;-3.30;99.90
24560;DHT22;12727;49.934;8.656;2022-12-18T14:52:04;-3.30;99.90
24560;DHT22;12727;49.934;8.656;2022-12-18T14:54:31;-3.20;99.90
24560;DHT22;12727;49.934;8.656;2022-12-18T14:57:23;-3.20;99.90
24560;DHT22;12727;49.934;8.656;2022-12-18T14:59:50;-3.30;99.90
24560;DHT22;12727;49.934;8.656;2022-12-18T15:02:24;-3.30;99.90
24560;DHT22;12727;49.934;8.656;2022-12-18T15:05:02;-3.30;99.90
24560;DHT22;12727;49.934;8.656;2022-12-18T15:07:43;-3.30;99.90
24560;DHT22;12727;49.934;8.656;2022-12-18T15:10:13;-3.30;99.90
24560;DHT22;12727;49.934;8.656;2022-12-18T15:18:05;-3.30;99.90
24560;DHT22;12727;49.934;8.656;2022-12-18T15:20:48;-3.20;99.90
24560;DHT22;12727;49.934;8.656;2022-12-18T15:23:19;-3.30;99.90
24560;DHT22;12727;49.934;8.656;2022-12-18T15:25:46;-3.40;99.90
24560;DHT22;12727;49.934;8.656;2022-12-18T15:28:36;-3.40;99.90
24560;DHT22;12727;49.934;8.656;2022-12-18T15:36:13;-3.40;99.90
24560;DHT22;12727;49.934;8.656;2022-12-18T15:38:39;-3.40;99.90
24560;DHT22;12727;49.934;8.656;2022-12-18T15:41:16;-3.50;99.90
24560;DHT22;12727;49.934;8.656;2022-12-18T15:43:42;-3.50;99.90
24560;DHT22;12727;49.934;8.656;2022-12-18T15:46:13;-3.60;99.90
24560;DHT22;12727;49.934;8.656;2022-12-18T15:48:53;-3.40;99.90
24560;DHT22;12727;49.934;8.656;2022-12-18T15:51:34;-3.30;99.90
24560;DHT22;12727;49.934;8.656;2022-12-18T15:54:02;-3.40;99.90
24560;DHT22;12727;49.934;8.656;2022-12-18T15:56:29;-3.40;99.90
24560;DHT22;12727;49.934;8.656;2022-12-18T15:59:18;-3.40;99.90
24560;DHT22;12727;49.934;8.656;2022-12-18T16:01:46;-3.40;99.90
24560;DHT22;12727;49.934;8.656;2022-12-18T16:04:14;-3.40;99.90
24560;DHT22;12727;49.934;8.656;2022-12-18T16:06:40;-3.30;99.90
24560;DHT22;12727;49.934;8.656;2022-12-18T16:09:06;-3.30;99.90
24560;DHT22;12727;49.934;8.656;2022-12-18T16:11:33;-3.30;99.90
24560;DHT22;12727;49.934;8.656;2022-12-18T16:14:29;-3.30;99.90
24560;DHT22;12727;49.934;8.656;2022-12-18T16:16:58;-3.30;99.90
24560;DHT22;12727;49.934;8.656;2022-12-18T16:19:24;-3.30;99.90
24560;DHT22;12727;49.934;8.656;2022-12-18T16:21:51;-3.30;99.90
24560;DHT22;12727;49.934;8.656;2022-12-18T16:24:18;-3.30;99.90
24560;DHT22;12727;49.934;8.656;2022-12-18T16:26:45;-3.30;99.90
24560;DHT22;12727;49.934;8.656;2022-12-18T16:29:11;-3.30;99.90
24560;DHT22;12727;49.934;8.656;2022-12-18T16:31:37;-3.20;99.90
24560;DHT22;12727;49.934;8.656;2022-12-18T16:34:21;-3.20;99.90
24560;DHT22;12727;49.934;8.656;2022-12-18T16:36:48;-3.20;99.90
24560;DHT22;12727;49.934;8.656;2022-12-18T16:39:14;-3.20;99.90
24560;DHT22;12727;49.934;8.656;2022-12-18T16:41:39;-3.10;99.90
24560;DHT22;12727;49.934;8.656;2022-12-18T16:44:05;-2.60;99.90
24560;DHT22;12727;49.934;8.656;2022-12-18T16:46:31;-2.60;99.90
24560;DHT22;12727;49.934;8.656;2022-12-18T16:48:58;-2.80;99.90
24560;DHT22;12727;49.934;8.656;2022-12-18T16:51:24;-2.80;99.90
24560;DHT22;12727;49.934;8.656;2022-12-18T16:53:50;-2.90;99.90
24560;DHT22;12727;49.934;8.656;2022-12-18T16:56:15;-3.00;99.90
24560;DHT22;12727;49.934;8.656;2022-12-18T16:58:41;-3.00;99.90
24560;DHT22;12727;49.934;8.656;2022-12-18T17:01:08;-3.10;99.90
24560;DHT22;12727;49.934;8.656;2022-12-18T17:03:33;-3.10;99.90
24560;DHT22;12727;49.934;8.656;2022-12-18T17:06:05;-3.10;99.90
24560;DHT22;12727;49.934;8.656;2022-12-18T17:08:31;-3.10;99.90
24560;DHT22;12727;49.934;8.656;2022-12-18T17:11:05;-3.10;99.90
24560;DHT22;12727;49.934;8.656;2022-12-18T17:13:31;-3.10;99.90
24560;DHT22;12727;49.934;8.656;2022-12-18T17:16:07;-3.10;99.90
24560;DHT22;12727;49.934;8.656;2022-12-18T17:18:36;-3.10;99.90
24560;DHT22;12727;49.934;8.656;2022-12-18T17:21:04;-3.10;99.90
24560;DHT22;12727;49.934;8.656;2022-12-18T17:23:30;-3.10;99.90